createdAt,value
2017-08-05T00:02:08.324Z,9.43
2017-08-05T00:04:35.941Z,5.13
2017-08-05T00:07:03.563Z,6.17
2017-08-05T00:09:31.196Z,7.77
2017-08-05T00:11:59.594Z,6.30
2017-08-05T00:14:27.244Z,5.30
2017-08-05T00:16:54.843Z,5.83
2017-08-05T00:19:23.211Z,4.17
2017-08-05T00:21:51.613Z,5.70
2017-08-05T00:24:19.235Z,4.23
2017-08-05T00:26:46.920Z,6.50
2017-08-05T00:29:14.537Z,4.60
2017-08-05T00:31:42.152Z,5.23
2017-08-05T00:34:09.934Z,5.77
2017-08-05T00:36:37.543Z,6.47
2017-08-05T00:39:05.190Z,6.23
2017-08-05T00:41:32.812Z,3.83
2017-08-05T00:44:00.416Z,4.27
2017-08-05T00:46:28.059Z,4.87
2017-08-05T00:48:55.670Z,5.33
2017-08-05T00:51:23.311Z,5.40
2017-08-05T00:53:50.925Z,7.10
2017-08-05T00:58:56.166Z,3.93
2017-08-05T01:01:23.799Z,4.17
2017-08-05T01:03:51.447Z,4.20
2017-08-05T01:06:19.085Z,4.57
2017-08-05T01:08:46.710Z,4.33
2017-08-05T01:11:14.358Z,4.63
2017-08-05T01:13:41.969Z,4.93
2017-08-05T01:16:09.626Z,5.30
2017-08-05T01:18:38.011Z,4.63
2017-08-05T01:21:05.633Z,5.03
2017-08-05T01:23:33.283Z,8.00
2017-08-05T01:26:01.672Z,4.37
2017-08-05T01:28:29.329Z,4.10
2017-08-05T01:30:56.945Z,5.13
2017-08-05T01:33:25.334Z,8.83
2017-08-05T01:35:52.994Z,8.53
2017-08-05T01:38:20.665Z,7.47
2017-08-05T01:40:48.327Z,6.60
2017-08-05T01:43:15.951Z,8.63
2017-08-05T01:45:43.565Z,4.73
2017-08-05T01:48:11.215Z,5.57
2017-08-05T01:50:38.849Z,4.20
2017-08-05T01:53:06.493Z,6.60
2017-08-05T01:55:34.109Z,6.17
2017-08-05T01:58:01.737Z,3.83
2017-08-05T02:00:29.421Z,4.17
2017-08-05T02:02:57.041Z,5.20
2017-08-05T02:05:24.696Z,5.30
2017-08-05T02:07:52.301Z,5.60
2017-08-05T02:10:19.973Z,5.13
2017-08-05T02:12:47.652Z,4.97
2017-08-05T02:15:15.278Z,5.05
2017-08-05T02:17:43.700Z,6.70
2017-08-05T02:20:11.345Z,4.55
2017-08-05T02:22:38.967Z,3.60
2017-08-05T02:25:06.654Z,5.93
2017-08-05T02:27:34.280Z,6.90
2017-08-05T02:30:01.923Z,4.63
2017-08-05T02:32:29.641Z,5.25
2017-08-05T02:34:58.008Z,6.20
2017-08-05T02:37:25.697Z,4.60
2017-08-05T02:39:53.318Z,8.38
2017-08-05T02:42:21.019Z,5.85
2017-08-05T02:44:48.666Z,5.03
2017-08-05T02:47:16.289Z,5.25
2017-08-05T02:49:43.953Z,6.30
2017-08-05T02:52:11.609Z,5.12
2017-08-05T02:54:40.089Z,6.35
2017-08-05T02:57:07.723Z,4.80
2017-08-05T02:59:36.130Z,4.50
2017-08-05T03:02:03.827Z,4.80
2017-08-05T03:04:31.477Z,8.02
2017-08-05T03:06:59.961Z,5.05
2017-08-05T03:09:27.596Z,5.30
2017-08-05T03:11:56.000Z,4.30
2017-08-05T03:14:23.670Z,4.72
2017-08-05T03:16:51.289Z,4.40
2017-08-05T03:19:18.985Z,5.65
2017-08-05T03:21:46.685Z,5.82
2017-08-05T03:24:14.322Z,5.50
2017-08-05T03:26:41.993Z,5.30
2017-08-05T03:29:09.679Z,7.90
2017-08-05T03:31:38.112Z,7.78
2017-08-05T03:34:06.314Z,5.40
2017-08-05T03:36:34.731Z,5.65
2017-08-05T03:39:02.402Z,5.55
2017-08-05T03:41:30.040Z,5.57
2017-08-05T03:43:57.714Z,5.57
2017-08-05T03:46:26.129Z,9.43
2017-08-05T03:48:53.826Z,6.10
2017-08-05T03:51:21.518Z,5.90
2017-08-05T03:53:49.146Z,5.78
2017-08-05T03:56:16.805Z,6.93
2017-08-05T03:58:44.454Z,6.22
2017-08-05T04:01:12.083Z,5.37
2017-08-05T04:03:39.766Z,6.22
2017-08-05T04:06:07.452Z,6.85
2017-08-05T04:08:35.122Z,7.32
2017-08-05T04:11:02.777Z,5.95
2017-08-05T04:13:30.416Z,5.35
2017-08-05T04:15:58.083Z,5.93
2017-08-05T04:18:25.740Z,7.90
2017-08-05T04:20:53.423Z,7.32
2017-08-05T04:23:21.052Z,7.53
2017-08-05T04:25:48.707Z,4.90
2017-08-05T04:28:16.366Z,5.12
2017-08-05T04:30:44.007Z,6.03
2017-08-05T04:33:11.681Z,5.80
2017-08-05T04:35:40.090Z,6.03
2017-08-05T04:38:07.728Z,6.15
2017-08-05T04:40:35.409Z,5.75
2017-08-05T04:43:03.037Z,5.50
2017-08-05T04:45:30.695Z,5.60
2017-08-05T04:47:58.365Z,7.12
2017-08-05T04:50:26.764Z,5.20
2017-08-05T04:52:54.425Z,5.37
2017-08-05T04:55:22.058Z,4.50
2017-08-05T04:57:49.727Z,5.18
2017-08-05T05:00:17.357Z,5.15
2017-08-05T05:02:45.066Z,5.70
2017-08-05T05:05:13.495Z,4.55
2017-08-05T05:07:41.182Z,5.53
2017-08-05T05:10:08.852Z,6.03
2017-08-05T05:12:37.249Z,7.00
2017-08-05T05:15:04.867Z,6.20
2017-08-05T05:17:32.525Z,3.97
2017-08-05T05:20:00.903Z,4.20
2017-08-05T05:22:28.544Z,4.83
2017-08-05T05:24:56.143Z,5.43
2017-08-05T05:27:23.757Z,3.87
2017-08-05T05:29:51.406Z,3.50
2017-08-05T05:32:19.005Z,6.73
2017-08-05T05:34:47.409Z,4.87
2017-08-05T05:37:15.016Z,4.33
2017-08-05T05:39:43.385Z,3.10
2017-08-05T05:42:11.788Z,4.87
2017-08-05T05:44:39.415Z,7.73
2017-08-05T05:47:07.051Z,5.63
2017-08-05T05:49:35.428Z,7.90
2017-08-05T05:52:03.040Z,3.87
2017-08-05T05:54:31.457Z,8.17
2017-08-05T05:56:59.081Z,4.83
2017-08-05T05:59:26.729Z,4.40
2017-08-05T06:01:54.337Z,4.43
2017-08-05T06:04:22.707Z,4.77
2017-08-05T06:06:51.110Z,4.60
2017-08-05T06:09:18.729Z,4.70
2017-08-05T06:11:47.150Z,5.90
2017-08-05T06:14:14.764Z,5.17
2017-08-05T06:16:42.382Z,5.20
2017-08-05T06:19:10.842Z,3.97
2017-08-05T06:21:38.443Z,6.03
2017-08-05T06:24:06.140Z,7.60
2017-08-05T06:26:33.755Z,3.80
2017-08-05T06:29:01.368Z,4.53
2017-08-05T06:31:29.053Z,5.20
2017-08-05T06:33:56.678Z,4.67
2017-08-05T06:36:24.321Z,8.37
2017-08-05T06:38:51.929Z,4.00
2017-08-05T06:41:19.588Z,5.93
2017-08-05T06:43:47.224Z,4.73
2017-08-05T06:46:14.832Z,3.60
2017-08-05T06:48:42.473Z,3.13
2017-08-05T06:51:10.067Z,5.07
2017-08-05T06:53:37.665Z,4.57
2017-08-05T06:56:05.305Z,4.07
2017-08-05T06:58:32.913Z,5.33
2017-08-05T07:01:00.656Z,3.00
2017-08-05T07:03:28.277Z,3.87
2017-08-05T07:05:56.709Z,3.53
2017-08-05T07:08:24.352Z,2.70
2017-08-05T07:10:52.015Z,2.80
2017-08-05T07:13:19.928Z,4.43
2017-08-05T07:15:47.533Z,3.53
2017-08-05T07:18:15.908Z,4.47
2017-08-05T07:20:44.442Z,3.20
2017-08-05T07:23:12.039Z,2.73
2017-08-05T07:25:39.669Z,3.20
2017-08-05T07:28:07.316Z,2.80
2017-08-05T07:30:35.198Z,3.00
2017-08-05T07:33:02.844Z,3.77
2017-08-05T07:35:30.444Z,2.40
2017-08-05T07:37:58.053Z,2.97
2017-08-05T07:40:25.708Z,2.50
2017-08-05T07:42:53.308Z,2.50
2017-08-05T07:45:20.960Z,5.83
2017-08-05T07:47:48.565Z,3.37
2017-08-05T07:50:16.939Z,4.53
2017-08-05T07:52:44.580Z,2.43
2017-08-05T07:55:12.997Z,3.20
2017-08-05T07:57:40.636Z,3.70
2017-08-05T08:00:08.246Z,3.40
2017-08-05T08:02:36.616Z,5.50
2017-08-05T08:05:05.022Z,3.17
2017-08-05T08:07:32.632Z,2.83
2017-08-05T08:10:00.259Z,5.97
2017-08-05T08:12:28.646Z,2.63
2017-08-05T08:14:56.264Z,3.03
2017-08-05T08:17:23.911Z,2.40
2017-08-05T08:19:52.282Z,1.70
2017-08-05T08:22:20.696Z,2.20
2017-08-05T08:24:48.309Z,2.30
2017-08-05T08:27:15.921Z,2.20
2017-08-05T08:29:43.570Z,2.17
2017-08-05T08:32:11.163Z,2.47
2017-08-05T08:34:38.796Z,4.70
2017-08-05T08:37:06.429Z,2.67
2017-08-05T08:39:34.857Z,3.93
2017-08-05T08:42:02.497Z,2.57
2017-08-05T08:44:30.100Z,4.10
2017-08-05T08:46:57.739Z,2.60
2017-08-05T08:49:26.132Z,2.10
2017-08-05T08:51:53.735Z,3.30
2017-08-05T08:54:21.397Z,2.73
2017-08-05T08:56:49.010Z,4.10
2017-08-05T08:59:16.642Z,5.03
2017-08-05T09:01:44.256Z,2.67
2017-08-05T09:04:11.858Z,1.87
2017-08-05T09:06:40.271Z,1.53
2017-08-05T09:09:07.898Z,2.80
2017-08-05T09:11:35.525Z,2.13
2017-08-05T09:14:03.913Z,1.43
2017-08-05T09:16:31.509Z,1.57
2017-08-05T09:18:59.146Z,2.03
2017-08-05T09:21:26.765Z,2.70
2017-08-05T09:23:54.406Z,2.17
2017-08-05T09:26:22.011Z,1.73
2017-08-05T09:28:49.604Z,2.40
2017-08-05T09:31:17.232Z,2.70
2017-08-05T09:33:44.841Z,1.50
2017-08-05T09:36:12.485Z,2.10
2017-08-05T09:38:40.096Z,1.67
2017-08-05T09:41:07.713Z,1.20
2017-08-05T09:43:35.367Z,1.67
2017-08-05T09:46:02.969Z,2.50
2017-08-05T09:48:30.595Z,1.60
2017-08-05T09:50:58.210Z,1.47
2017-08-05T09:53:25.820Z,2.60
2017-08-05T09:55:54.232Z,2.33
2017-08-05T09:58:21.840Z,1.90
2017-08-05T10:00:50.249Z,2.40
2017-08-05T10:03:17.856Z,2.80
2017-08-05T10:05:45.469Z,2.43
2017-08-05T10:08:13.104Z,1.90
2017-08-05T10:10:40.716Z,1.77
2017-08-05T10:13:08.349Z,2.20
2017-08-05T10:15:35.956Z,1.40
2017-08-05T10:18:03.563Z,2.00
2017-08-05T10:20:31.188Z,2.13
2017-08-05T10:22:58.790Z,2.00
2017-08-05T10:25:26.450Z,3.03
2017-08-05T10:27:54.848Z,1.93
2017-08-05T10:30:22.485Z,3.20
2017-08-05T10:32:50.108Z,2.93
2017-08-05T10:35:17.712Z,1.63
2017-08-05T10:37:45.358Z,2.30
2017-08-05T10:40:12.964Z,3.33
2017-08-05T10:42:40.615Z,3.07
2017-08-05T10:45:08.276Z,2.37
2017-08-05T10:47:35.907Z,1.87
2017-08-05T10:50:03.550Z,1.33
2017-08-05T10:52:31.163Z,1.50
2017-08-05T10:54:58.775Z,1.77
2017-08-05T10:57:26.438Z,1.57
2017-08-05T10:59:54.092Z,1.63
2017-08-05T11:02:21.736Z,2.13
2017-08-05T11:04:49.339Z,4.43
2017-08-05T11:07:16.945Z,2.30
2017-08-05T11:09:44.589Z,2.30
2017-08-05T11:12:12.205Z,1.93
2017-08-05T11:14:40.241Z,1.33
2017-08-05T11:17:07.945Z,3.37
2017-08-05T11:19:35.544Z,1.83
2017-08-05T11:22:03.181Z,1.10
2017-08-05T11:24:30.848Z,1.90
2017-08-05T11:26:58.503Z,1.63
2017-08-05T11:29:26.161Z,1.43
2017-08-05T11:31:53.769Z,1.87
2017-08-05T11:34:21.579Z,3.33
2017-08-05T11:36:50.078Z,1.80
2017-08-05T11:39:17.703Z,1.63
2017-08-05T11:41:46.083Z,1.57
2017-08-05T11:44:13.716Z,2.70
2017-08-05T11:46:41.377Z,1.50
2017-08-05T11:49:09.030Z,2.47
2017-08-05T11:51:37.513Z,1.93
2017-08-05T11:54:05.127Z,3.77
2017-08-05T11:56:32.735Z,1.20
2017-08-05T11:59:00.385Z,1.40
2017-08-05T12:01:28.049Z,3.70
2017-08-05T12:03:56.471Z,1.50
2017-08-05T12:06:24.093Z,1.83
2017-08-05T12:08:51.700Z,1.73
2017-08-05T12:11:19.554Z,2.03
2017-08-05T12:13:47.933Z,2.70
2017-08-05T12:16:15.582Z,2.40
2017-08-05T12:18:43.960Z,1.13
2017-08-05T12:21:11.585Z,2.90
2017-08-05T12:23:39.237Z,1.60
2017-08-05T12:26:06.874Z,1.17
2017-08-05T12:28:35.279Z,1.53
2017-08-05T12:31:02.895Z,1.40
2017-08-05T12:33:30.801Z,1.90
2017-08-05T12:35:58.459Z,1.27
2017-08-05T12:38:26.088Z,2.93
2017-08-05T12:40:53.754Z,2.17
2017-08-05T12:43:21.386Z,1.57
2017-08-05T12:45:49.023Z,2.03
2017-08-05T12:48:17.486Z,2.00
2017-08-05T12:50:45.084Z,2.87
2017-08-05T12:53:13.533Z,2.60
2017-08-05T12:55:41.920Z,1.17
2017-08-05T12:58:09.577Z,1.60
2017-08-05T13:00:37.211Z,1.67
2017-08-05T13:03:04.833Z,1.83
2017-08-05T13:05:32.481Z,2.67
2017-08-05T13:08:00.651Z,2.07
2017-08-05T13:10:28.282Z,2.77
2017-08-05T13:12:55.935Z,2.90
2017-08-05T13:15:24.324Z,3.67
2017-08-05T13:17:51.965Z,2.00
2017-08-05T13:20:19.666Z,4.50
2017-08-05T13:22:47.297Z,1.93
2017-08-05T13:25:14.934Z,2.03
2017-08-05T13:27:42.540Z,1.63
2017-08-05T13:30:11.184Z,2.03
2017-08-05T13:32:39.768Z,1.83
2017-08-05T13:35:09.223Z,2.10
2017-08-05T13:37:36.876Z,2.23
2017-08-05T13:40:04.490Z,2.87
2017-08-05T13:42:32.127Z,2.50
2017-08-05T13:44:59.808Z,3.53
2017-08-05T13:47:27.457Z,1.90
2017-08-05T13:49:55.129Z,7.03
2017-08-05T13:52:22.772Z,3.20
2017-08-05T13:54:50.434Z,3.77
2017-08-05T13:57:18.811Z,2.03
2017-08-05T13:59:47.190Z,5.63
2017-08-05T14:02:14.827Z,1.60
2017-08-05T14:04:42.465Z,2.60
2017-08-05T14:07:10.982Z,2.20
2017-08-05T14:09:38.640Z,2.00
2017-08-05T14:12:06.252Z,3.00
2017-08-05T14:14:33.887Z,2.67
2017-08-05T14:17:01.552Z,1.53
2017-08-05T14:19:29.220Z,3.53
2017-08-05T14:21:56.958Z,1.83
2017-08-05T14:24:24.591Z,1.63
2017-08-05T14:26:52.226Z,2.70
2017-08-05T14:29:20.004Z,2.20
2017-08-05T14:31:47.653Z,1.40
2017-08-05T14:34:15.342Z,1.23
2017-08-05T14:36:43.716Z,1.53
2017-08-05T14:39:11.413Z,1.60
2017-08-05T14:41:39.051Z,1.37
2017-08-05T14:44:06.699Z,1.83
2017-08-05T14:46:34.340Z,2.00
2017-08-05T14:49:01.959Z,4.50
2017-08-05T14:51:29.627Z,3.97
2017-08-05T14:53:57.265Z,1.60
2017-08-05T14:56:24.953Z,1.43
2017-08-05T14:58:52.555Z,2.40
2017-08-05T15:01:20.169Z,2.23
2017-08-05T15:03:47.818Z,4.00
2017-08-05T15:06:16.240Z,3.77
2017-08-05T15:08:43.885Z,1.57
2017-08-05T15:11:11.620Z,2.20
2017-08-05T15:13:39.257Z,2.80
2017-08-05T15:16:06.912Z,2.70
2017-08-05T15:18:34.533Z,3.57
2017-08-05T15:21:02.248Z,5.77
2017-08-05T15:23:30.966Z,4.20
2017-08-05T15:25:58.604Z,4.47
2017-08-05T15:28:26.257Z,4.60
2017-08-05T15:30:53.905Z,2.50
2017-08-05T15:33:21.881Z,2.33
2017-08-05T15:35:49.632Z,2.50
2017-08-05T15:38:17.245Z,3.73
2017-08-05T15:40:44.943Z,2.83
2017-08-05T15:43:12.555Z,4.17
2017-08-05T15:45:40.338Z,2.33
2017-08-05T15:48:07.944Z,2.60
2017-08-05T15:50:35.586Z,1.67
2017-08-05T15:53:03.244Z,2.90
2017-08-05T15:55:30.920Z,1.77
2017-08-05T15:57:58.560Z,2.23
2017-08-05T16:00:26.160Z,2.23
2017-08-05T16:02:54.553Z,2.23
2017-08-05T16:05:22.206Z,2.80
2017-08-05T16:07:49.868Z,5.00
2017-08-05T16:10:17.517Z,2.40
2017-08-05T16:12:45.177Z,2.70
2017-08-05T16:15:12.812Z,5.30
2017-08-05T16:17:40.464Z,6.27
2017-08-05T16:20:08.117Z,4.53
2017-08-05T16:22:35.768Z,4.83
2017-08-05T16:25:03.388Z,7.23
2017-08-05T16:27:31.065Z,3.77
2017-08-05T16:29:58.664Z,2.90
2017-08-05T16:32:26.276Z,3.90
2017-08-05T16:34:54.671Z,2.47
2017-08-05T16:37:22.272Z,3.33
2017-08-05T16:39:50.662Z,1.83
2017-08-05T16:42:18.267Z,4.23
2017-08-05T16:44:45.909Z,1.90
2017-08-05T16:47:13.578Z,2.43
2017-08-05T16:49:41.952Z,5.10
2017-08-05T16:52:10.347Z,3.80
2017-08-05T16:54:37.983Z,4.30
2017-08-05T16:57:05.606Z,2.67
2017-08-05T16:59:33.263Z,4.97
2017-08-05T17:02:00.887Z,2.27
2017-08-05T17:04:28.608Z,3.83
2017-08-05T17:06:56.227Z,2.83
2017-08-05T17:09:23.840Z,2.40
2017-08-05T17:11:51.556Z,2.43
2017-08-05T17:14:19.210Z,3.97
2017-08-05T17:16:46.860Z,4.50
2017-08-05T17:19:14.463Z,3.50
2017-08-05T17:21:42.107Z,4.53
2017-08-05T17:24:10.720Z,3.87
2017-08-05T17:26:38.335Z,5.97
2017-08-05T17:29:05.976Z,4.73
2017-08-05T17:31:33.583Z,6.50
2017-08-05T17:34:01.215Z,10.13
2017-08-05T17:36:29.645Z,4.20
2017-08-05T17:38:57.251Z,5.30
2017-08-05T17:41:24.901Z,5.07
2017-08-05T17:43:52.503Z,4.07
2017-08-05T17:46:20.120Z,5.93
2017-08-05T17:48:47.775Z,6.90
2017-08-05T17:51:15.386Z,5.73
2017-08-05T17:53:43.045Z,4.23
2017-08-05T17:56:10.661Z,7.13
2017-08-05T17:58:39.080Z,27.63
2017-08-05T18:01:06.857Z,14.33
2017-08-05T18:03:34.461Z,10.47
2017-08-05T18:06:02.153Z,9.40
2017-08-05T18:08:31.323Z,4.90
2017-08-05T18:10:58.990Z,7.20
2017-08-05T18:13:26.718Z,4.80
2017-08-05T18:15:54.338Z,8.03
2017-08-05T18:18:21.990Z,6.37
2017-08-05T18:20:50.190Z,7.20
2017-08-05T18:23:18.609Z,5.10
2017-08-05T18:25:46.232Z,8.43
2017-08-05T18:28:13.852Z,6.80
2017-08-05T18:30:41.504Z,5.23
2017-08-05T18:33:09.193Z,5.30
2017-08-05T18:35:36.839Z,4.80
2017-08-05T18:38:04.476Z,5.50
2017-08-05T18:40:32.095Z,5.03
2017-08-05T18:42:59.981Z,5.97
2017-08-05T18:45:27.589Z,6.17
2017-08-05T18:47:55.238Z,5.20
2017-08-05T18:50:22.852Z,6.97
2017-08-05T18:52:50.578Z,7.57
2017-08-05T18:55:18.239Z,5.43
2017-08-05T18:57:45.861Z,5.13
2017-08-05T19:00:13.526Z,4.83
2017-08-05T19:02:41.175Z,6.43
2017-08-05T19:05:08.801Z,5.77
2017-08-05T19:07:37.277Z,5.37
2017-08-05T19:10:04.933Z,6.37
2017-08-05T19:12:32.983Z,6.17
2017-08-05T19:15:00.600Z,8.30
2017-08-05T19:17:28.217Z,7.50
2017-08-05T19:19:56.629Z,9.43
2017-08-05T19:22:24.253Z,6.23
2017-08-05T19:24:51.911Z,9.30
2017-08-05T19:27:20.248Z,7.20
2017-08-05T19:29:47.873Z,8.60
2017-08-05T19:32:16.275Z,8.53
2017-08-05T19:34:43.889Z,7.17
2017-08-05T19:37:12.313Z,9.13
2017-08-05T19:39:39.944Z,7.00
2017-08-05T19:42:07.560Z,7.80
2017-08-05T19:44:35.575Z,8.20
2017-08-05T19:47:03.191Z,7.47
2017-08-05T19:49:30.836Z,6.90
2017-08-05T19:51:58.453Z,6.93
2017-08-05T19:54:26.096Z,7.10
2017-08-05T19:56:53.740Z,7.23
2017-08-05T19:59:22.110Z,10.00
2017-08-05T20:01:49.772Z,11.73
2017-08-05T20:04:17.379Z,36.10
2017-08-05T20:06:45.786Z,107.47
2017-08-05T20:09:13.445Z,30.47
2017-08-05T20:11:41.064Z,30.63
2017-08-05T20:14:08.737Z,14.70
2017-08-05T20:16:36.381Z,15.10
2017-08-05T20:19:04.063Z,12.90
2017-08-05T20:21:31.711Z,17.40
2017-08-05T20:23:59.371Z,16.57
2017-08-05T20:26:27.821Z,12.80
2017-08-05T20:28:55.440Z,13.30
2017-08-05T20:31:23.064Z,12.33
2017-08-05T20:33:50.720Z,13.97
2017-08-05T20:36:18.336Z,12.40
2017-08-05T20:38:46.755Z,12.50
2017-08-05T20:41:14.373Z,11.27
2017-08-05T20:43:41.984Z,10.10
2017-08-05T20:46:10.388Z,11.07
2017-08-05T20:48:38.006Z,11.17
2017-08-05T20:51:05.664Z,15.73
2017-08-05T20:53:33.294Z,13.03
2017-08-05T20:56:01.668Z,15.17
2017-08-05T20:58:29.340Z,15.10
2017-08-05T21:00:56.965Z,14.63
2017-08-05T21:03:24.586Z,13.27
2017-08-05T21:05:52.251Z,16.10
2017-08-05T21:08:19.884Z,13.77
2017-08-05T21:10:48.279Z,12.47
2017-08-05T21:13:15.926Z,12.80
2017-08-05T21:15:43.559Z,13.37
2017-08-05T21:18:11.195Z,13.83
2017-08-05T21:20:39.641Z,12.30
2017-08-05T21:23:07.257Z,12.70
2017-08-05T21:25:34.882Z,10.50
2017-08-05T21:28:02.552Z,11.60
2017-08-05T21:30:30.173Z,10.87
2017-08-05T21:32:57.792Z,11.30
2017-08-05T21:35:26.208Z,12.80
2017-08-05T21:37:53.838Z,11.10
2017-08-05T21:40:21.507Z,9.30
2017-08-05T21:42:49.129Z,9.97
2017-08-05T21:45:16.736Z,9.80
2017-08-05T21:47:45.147Z,9.50
2017-08-05T21:50:12.757Z,10.60
2017-08-05T21:52:40.395Z,8.53
2017-08-05T21:55:08.003Z,8.47
2017-08-05T21:57:35.617Z,8.93
2017-08-05T22:00:03.308Z,9.00
2017-08-05T22:02:30.944Z,9.93
2017-08-05T22:04:58.658Z,8.90
2017-08-05T22:07:26.259Z,7.43
2017-08-05T22:09:55.406Z,8.67
2017-08-05T22:12:23.049Z,11.03
2017-08-05T22:14:50.661Z,7.67
2017-08-05T22:17:18.300Z,9.13
2017-08-05T22:19:45.913Z,8.50
2017-08-05T22:22:13.519Z,8.10
2017-08-05T22:24:41.164Z,10.03
2017-08-05T22:27:08.785Z,9.90
2017-08-05T22:29:36.472Z,10.10
2017-08-05T22:32:04.113Z,11.20
2017-08-05T22:34:31.769Z,10.23
2017-08-05T22:36:59.555Z,10.53
2017-08-05T22:39:27.165Z,9.50
2017-08-05T22:41:54.794Z,9.60
2017-08-05T22:44:22.404Z,10.30
2017-08-05T22:46:50.791Z,10.40
2017-08-05T22:49:18.431Z,11.43
2017-08-05T22:51:46.043Z,12.03
2017-08-05T22:54:13.736Z,11.83
2017-08-05T22:56:41.358Z,10.03
2017-08-05T22:59:09.865Z,10.97
2017-08-05T23:01:43.010Z,10.57
2017-08-05T23:04:10.830Z,11.20
2017-08-05T23:06:39.249Z,9.73
2017-08-05T23:09:06.889Z,11.77
2017-08-05T23:11:34.524Z,12.90
2017-08-05T23:14:02.183Z,10.90
2017-08-05T23:16:29.802Z,11.03
2017-08-05T23:18:57.441Z,12.93
2017-08-05T23:21:25.813Z,10.33
2017-08-05T23:23:53.441Z,14.90
2017-08-05T23:26:21.109Z,12.35
2017-08-05T23:28:48.724Z,10.90
2017-08-05T23:31:16.401Z,12.45
2017-08-05T23:33:44.018Z,12.33
2017-08-05T23:36:11.680Z,11.50
2017-08-05T23:38:39.290Z,12.07
2017-08-05T23:41:06.895Z,11.73
2017-08-05T23:43:34.545Z,11.23
2017-08-05T23:46:02.193Z,11.98
2017-08-05T23:48:29.866Z,13.70
2017-08-05T23:50:58.277Z,12.48
2017-08-05T23:53:25.919Z,12.02
2017-08-05T23:55:53.602Z,13.05
2017-08-05T23:58:21.240Z,9.82
